createdAt,value
2018-04-18T00:02:04.098Z,13.78
2018-04-18T00:04:33.807Z,13.73
2018-04-18T00:07:03.040Z,13.63
2018-04-18T00:09:32.325Z,13.65
2018-04-18T00:12:00.660Z,13.70
2018-04-18T00:14:29.065Z,13.82
2018-04-18T00:16:59.116Z,13.57
2018-04-18T00:19:27.551Z,13.51
2018-04-18T00:21:56.149Z,13.56
2018-04-18T00:24:24.590Z,13.60
2018-04-18T00:26:53.232Z,13.67
2018-04-18T00:29:22.529Z,13.63
2018-04-18T00:31:52.156Z,13.47
2018-04-18T00:34:21.964Z,13.46
2018-04-18T00:36:50.390Z,13.46
2018-04-18T00:39:18.754Z,13.43
2018-04-18T00:41:47.672Z,13.31
2018-04-18T00:44:16.512Z,13.33
2018-04-18T00:46:45.653Z,13.33
2018-04-18T00:49:14.021Z,13.34
2018-04-18T00:51:43.996Z,13.28
2018-04-18T00:54:13.461Z,13.32
2018-04-18T00:56:42.237Z,13.26
2018-04-18T00:59:11.964Z,13.20
2018-04-18T01:01:41.078Z,13.13
2018-04-18T01:04:09.812Z,12.98
2018-04-18T01:06:39.899Z,12.91
2018-04-18T01:09:08.529Z,12.88
2018-04-18T01:11:37.638Z,12.89
2018-04-18T01:14:06.784Z,12.89
2018-04-18T01:16:36.922Z,12.94
2018-04-18T01:19:06.236Z,12.91
2018-04-18T01:21:35.195Z,12.79
2018-04-18T01:24:04.974Z,12.83
2018-04-18T01:26:33.848Z,12.89
2018-04-18T01:29:02.351Z,12.79
2018-04-18T01:31:30.756Z,12.60
2018-04-18T01:33:59.448Z,12.39
2018-04-18T01:36:28.587Z,12.35
2018-04-18T01:38:58.067Z,12.42
2018-04-18T01:41:27.315Z,12.37
2018-04-18T01:43:58.044Z,12.28
2018-04-18T01:46:26.470Z,12.31
2018-04-18T01:52:04.694Z,12.15
2018-04-18T01:54:33.056Z,11.99
2018-04-18T01:57:02.240Z,11.86
2018-04-18T01:59:30.628Z,11.96
2018-04-18T02:01:59.007Z,12.07
2018-04-18T02:04:28.212Z,12.21
2018-04-18T02:06:56.545Z,12.23
2018-04-18T02:09:25.505Z,12.26
2018-04-18T02:11:54.678Z,12.22
2018-04-18T02:14:24.058Z,12.26
2018-04-18T02:16:54.166Z,12.38
2018-04-18T02:19:23.237Z,12.28
2018-04-18T02:21:51.731Z,12.30
2018-04-18T02:24:21.205Z,12.14
2018-04-18T02:26:50.936Z,11.99
2018-04-18T02:29:20.624Z,12.01
2018-04-18T02:31:49.153Z,12.22
2018-04-18T02:34:18.405Z,12.35
2018-04-18T02:36:47.633Z,12.27
2018-04-18T02:39:15.996Z,12.31
2018-04-18T02:41:46.102Z,12.45
2018-04-18T02:44:16.216Z,12.39
2018-04-18T02:46:46.041Z,12.31
2018-04-18T02:49:16.575Z,12.32
2018-04-18T02:51:45.758Z,12.36
2018-04-18T02:54:16.174Z,12.26
2018-04-18T02:56:45.853Z,12.24
2018-04-18T02:59:14.206Z,12.09
2018-04-18T03:01:42.587Z,12.01
2018-04-18T03:04:13.376Z,12.01
2018-04-18T03:06:42.666Z,11.69
2018-04-18T03:09:12.825Z,11.71
2018-04-18T03:11:43.715Z,11.56
2018-04-18T03:14:12.913Z,11.56
2018-04-18T03:16:41.732Z,11.43
2018-04-18T03:19:10.713Z,11.37
2018-04-18T03:21:40.913Z,11.44
2018-04-18T03:24:11.016Z,11.58
2018-04-18T03:26:39.384Z,11.60
2018-04-18T03:29:07.882Z,11.61
2018-04-18T03:31:36.317Z,11.44
2018-04-18T03:34:05.400Z,11.46
2018-04-18T03:36:34.991Z,11.39
2018-04-18T03:39:04.222Z,11.11
2018-04-18T03:41:33.401Z,10.83
2018-04-18T03:44:02.879Z,11.01
2018-04-18T03:46:31.740Z,10.88
2018-04-18T03:49:00.381Z,10.70
2018-04-18T03:51:30.429Z,10.69
2018-04-18T03:53:59.492Z,10.70
2018-04-18T03:56:29.405Z,10.50
2018-04-18T03:58:59.625Z,10.46
2018-04-18T04:01:29.427Z,10.53
2018-04-18T04:03:59.624Z,10.72
2018-04-18T04:06:27.998Z,10.78
2018-04-18T04:08:57.708Z,10.89
2018-04-18T04:11:26.465Z,10.94
2018-04-18T04:13:54.829Z,10.89
2018-04-18T04:16:35.583Z,10.86
2018-04-18T04:19:15.655Z,10.86
2018-04-18T04:21:55.846Z,10.85
2018-04-18T04:24:50.864Z,10.81
2018-04-18T04:27:19.681Z,10.81
2018-04-18T04:29:49.189Z,10.84
2018-04-18T04:32:17.791Z,10.82
2018-04-18T04:34:49.072Z,10.85
2018-04-18T04:37:19.953Z,10.73
2018-04-18T04:39:50.312Z,10.62
2018-04-18T04:42:18.770Z,10.47
2018-04-18T04:44:47.941Z,10.36
2018-04-18T04:47:17.970Z,10.35
2018-04-18T04:49:47.651Z,10.20
2018-04-18T04:52:16.915Z,10.22
2018-04-18T04:54:45.304Z,10.13
2018-04-18T04:57:14.484Z,10.18
2018-04-18T04:59:44.304Z,10.14
2018-04-18T05:02:12.725Z,10.16
2018-04-18T05:04:41.317Z,10.21
2018-04-18T05:07:09.689Z,10.16
2018-04-18T05:09:38.977Z,10.38
2018-04-18T05:12:07.496Z,10.49
2018-04-18T05:14:37.127Z,10.58
2018-04-18T05:17:05.501Z,10.57
2018-04-18T05:19:35.412Z,10.60
2018-04-18T05:22:04.342Z,10.69
2018-04-18T05:24:33.566Z,10.75
2018-04-18T05:27:04.350Z,10.79
2018-04-18T05:29:33.454Z,10.53
2018-04-18T05:32:01.794Z,10.70
2018-04-18T05:34:31.329Z,10.81
2018-04-18T05:36:59.970Z,10.97
2018-04-18T05:39:29.320Z,11.02
2018-04-18T05:41:58.390Z,11.16
2018-04-18T05:44:27.769Z,11.14
2018-04-18T05:46:57.193Z,11.15
2018-04-18T05:49:26.192Z,11.25
2018-04-18T05:51:54.637Z,11.38
2018-04-18T05:54:23.933Z,11.57
2018-04-18T05:56:53.857Z,11.64
2018-04-18T05:59:23.068Z,11.73
2018-04-18T06:01:53.062Z,11.80
2018-04-18T06:04:22.313Z,11.82
2018-04-18T06:06:52.005Z,11.83
2018-04-18T06:09:21.589Z,11.86
2018-04-18T06:11:50.508Z,11.92
2018-04-18T06:14:18.893Z,11.99
2018-04-18T06:16:47.317Z,12.11
2018-04-18T06:19:17.239Z,12.12
2018-04-18T06:21:46.366Z,12.11
2018-04-18T06:24:14.889Z,12.27
2018-04-18T06:26:45.064Z,12.42
2018-04-18T06:29:14.002Z,12.50
2018-04-18T06:31:42.578Z,12.64
2018-04-18T06:34:11.999Z,12.75
2018-04-18T06:36:41.208Z,12.86
2018-04-18T06:39:10.934Z,13.07
2018-04-18T06:41:39.305Z,13.13
2018-04-18T06:44:08.275Z,13.22
2018-04-18T06:46:37.732Z,13.42
2018-04-18T06:49:06.586Z,13.55
2018-04-18T06:51:36.739Z,13.74
2018-04-18T06:54:06.488Z,13.88
2018-04-18T06:56:36.091Z,13.90
2018-04-18T06:59:04.531Z,14.07
2018-04-18T07:01:33.686Z,14.21
2018-04-18T07:04:03.301Z,14.35
2018-04-18T07:06:31.929Z,14.49
2018-04-18T07:09:01.526Z,14.59
2018-04-18T07:11:31.209Z,14.81
2018-04-18T07:14:00.700Z,14.75
2018-04-18T07:16:30.067Z,14.92
2018-04-18T07:18:58.451Z,15.12
2018-04-18T07:21:27.710Z,15.12
2018-04-18T07:23:56.745Z,15.29
2018-04-18T07:26:26.350Z,15.43
2018-04-18T07:28:55.924Z,15.44
2018-04-18T07:31:25.425Z,15.61
2018-04-18T07:33:53.760Z,15.84
2018-04-18T07:36:23.391Z,15.99
2018-04-18T07:38:52.613Z,16.17
2018-04-18T07:41:22.172Z,16.03
2018-04-18T07:43:50.548Z,16.31
2018-04-18T07:46:19.043Z,16.38
2018-04-18T07:48:47.566Z,16.50
2018-04-18T07:51:17.746Z,16.70
2018-04-18T07:53:47.503Z,16.93
2018-04-18T07:56:16.706Z,16.91
2018-04-18T07:58:45.076Z,16.73
2018-04-18T08:01:14.323Z,17.21
2018-04-18T08:03:42.709Z,17.20
2018-04-18T08:06:15.091Z,17.43
2018-04-18T08:08:45.292Z,17.73
2018-04-18T08:11:15.860Z,17.91
2018-04-18T08:13:45.058Z,17.98
2018-04-18T08:16:13.465Z,18.33
2018-04-18T08:18:42.359Z,18.39
2018-04-18T08:21:13.502Z,18.52
2018-04-18T08:23:41.937Z,18.78
2018-04-18T08:26:11.082Z,18.80
2018-04-18T08:28:40.639Z,18.83
2018-04-18T08:31:09.935Z,19.00
2018-04-18T08:33:39.232Z,19.22
2018-04-18T08:36:07.603Z,19.20
2018-04-18T08:38:36.431Z,19.43
2018-04-18T08:41:05.551Z,19.55
2018-04-18T08:43:34.830Z,19.53
2018-04-18T08:46:03.231Z,19.93
2018-04-18T08:48:32.737Z,20.13
2018-04-18T08:51:01.914Z,20.29
2018-04-18T08:53:30.386Z,20.36
2018-04-18T08:56:00.538Z,20.17
2018-04-18T08:58:28.900Z,20.32
2018-04-18T09:00:58.353Z,20.64
2018-04-18T09:03:27.599Z,20.93
2018-04-18T09:05:56.036Z,21.15
2018-04-18T09:08:24.362Z,21.25
2018-04-18T09:10:53.441Z,21.50
2018-04-18T09:13:22.065Z,21.49
2018-04-18T09:15:51.226Z,21.69
2018-04-18T09:18:20.357Z,21.32
2018-04-18T09:20:49.983Z,21.54
2018-04-18T09:23:19.504Z,21.95
2018-04-18T09:25:48.646Z,22.26
2018-04-18T09:28:18.002Z,22.25
2018-04-18T09:30:47.333Z,22.13
2018-04-18T09:33:15.971Z,21.90
2018-04-18T09:35:45.563Z,22.28
2018-04-18T09:38:14.734Z,22.60
2018-04-18T09:40:43.876Z,22.70
2018-04-18T09:43:13.127Z,22.87
2018-04-18T09:45:48.717Z,22.32
2018-04-18T09:48:17.807Z,22.77
2018-04-18T09:50:48.320Z,23.35
2018-04-18T09:53:19.470Z,23.42
2018-04-18T09:55:47.912Z,23.57
2018-04-18T09:58:16.323Z,24.05
2018-04-18T10:00:50.686Z,23.92
2018-04-18T10:03:20.781Z,24.03
2018-04-18T10:05:49.214Z,24.43
2018-04-18T10:08:19.024Z,24.64
2018-04-18T10:10:48.026Z,25.21
2018-04-18T10:13:16.400Z,25.20
2018-04-18T10:15:44.734Z,25.24
2018-04-18T10:18:13.094Z,25.52
2018-04-18T10:20:41.541Z,25.49
2018-04-18T10:23:09.883Z,25.67
2018-04-18T10:25:39.229Z,25.85
2018-04-18T10:28:07.583Z,25.91
2018-04-18T10:30:37.118Z,25.95
2018-04-18T10:33:05.867Z,26.18
2018-04-18T10:35:36.014Z,25.75
2018-04-18T10:38:04.996Z,25.43
2018-04-18T10:40:34.253Z,25.65
2018-04-18T10:43:04.531Z,25.84
2018-04-18T10:45:33.316Z,26.09
2018-04-18T10:48:02.822Z,26.14
2018-04-18T10:50:32.627Z,26.38
2018-04-18T10:53:01.792Z,27.26
2018-04-18T10:55:31.740Z,27.08
2018-04-18T10:58:00.372Z,27.43
2018-04-18T11:00:29.258Z,27.59
2018-04-18T11:02:57.652Z,27.59
2018-04-18T11:05:27.286Z,27.52
2018-04-18T11:07:55.635Z,27.18
2018-04-18T11:10:26.763Z,27.02
2018-04-18T11:12:56.698Z,27.35
2018-04-18T11:15:27.422Z,27.65
2018-04-18T11:17:55.826Z,27.29
2018-04-18T11:20:25.034Z,27.24
2018-04-18T11:22:55.025Z,28.01
2018-04-18T11:25:25.335Z,28.15
2018-04-18T11:27:55.317Z,28.46
2018-04-18T11:30:23.743Z,28.40
2018-04-18T11:32:52.415Z,28.63
2018-04-18T11:35:22.310Z,28.91
2018-04-18T11:37:51.454Z,28.21
2018-04-18T11:40:20.735Z,28.02
2018-04-18T11:42:49.846Z,28.03
2018-04-18T11:45:18.242Z,28.29
2018-04-18T11:47:48.794Z,28.00
2018-04-18T11:50:17.920Z,28.26
2018-04-18T11:52:46.557Z,28.84
2018-04-18T11:55:15.809Z,28.34
2018-04-18T11:57:45.031Z,29.24
2018-04-18T12:00:14.329Z,29.33
2018-04-18T12:02:44.150Z,29.31
2018-04-18T12:05:12.521Z,29.64
2018-04-18T12:07:42.591Z,29.44
2018-04-18T12:10:11.668Z,29.57
2018-04-18T12:12:44.405Z,29.47
2018-04-18T12:15:13.348Z,29.29
2018-04-18T12:17:43.745Z,29.37
2018-04-18T12:20:12.100Z,29.78
2018-04-18T12:22:42.239Z,30.03
2018-04-18T12:25:12.437Z,30.00
2018-04-18T12:27:41.135Z,29.87
2018-04-18T12:30:10.837Z,29.25
2018-04-18T12:32:40.382Z,29.56
2018-04-18T12:35:10.507Z,29.31
2018-04-18T12:37:40.633Z,28.34
2018-04-18T12:40:09.928Z,27.75
2018-04-18T12:42:39.968Z,28.19
2018-04-18T12:45:08.828Z,29.44
2018-04-18T12:47:37.434Z,29.50
2018-04-18T12:50:09.799Z,30.17
2018-04-18T12:52:40.814Z,30.48
2018-04-18T12:55:12.247Z,30.11
2018-04-18T12:57:41.872Z,30.27
2018-04-18T13:00:12.252Z,30.51
2018-04-18T13:02:41.820Z,30.59
2018-04-18T13:05:12.119Z,30.22
2018-04-18T13:07:42.893Z,30.32
2018-04-18T13:10:11.565Z,30.08
2018-04-18T13:12:40.854Z,30.72
2018-04-18T13:15:09.305Z,30.12
2018-04-18T13:17:38.083Z,30.60
2018-04-18T13:20:08.816Z,30.58
2018-04-18T13:25:07.174Z,30.88
2018-04-18T13:27:36.533Z,31.74
2018-04-18T13:30:05.296Z,32.09
2018-04-18T13:32:33.755Z,31.43
2018-04-18T13:35:03.222Z,31.58
2018-04-18T13:37:32.831Z,31.19
2018-04-18T13:40:01.717Z,31.19
2018-04-18T13:42:31.042Z,31.12
2018-04-18T13:45:01.305Z,31.49
2018-04-18T13:47:34.412Z,31.57
2018-04-18T13:50:02.750Z,31.24
2018-04-18T13:52:31.947Z,31.25
2018-04-18T13:55:01.189Z,30.61
2018-04-18T13:57:31.427Z,31.66
2018-04-18T14:00:00.212Z,32.06
2018-04-18T14:02:31.921Z,31.99
2018-04-18T14:05:02.271Z,31.42
2018-04-18T14:07:31.889Z,32.22
2018-04-18T14:10:00.286Z,32.57
2018-04-18T14:12:30.035Z,32.36
2018-04-18T14:15:01.623Z,32.40
2018-04-18T14:17:30.715Z,32.32
2018-04-18T14:20:02.329Z,32.73
2018-04-18T14:22:32.398Z,32.15
2018-04-18T14:25:01.530Z,31.88
2018-04-18T14:27:30.758Z,31.85
2018-04-18T14:30:00.869Z,31.49
2018-04-18T14:32:29.625Z,31.86
2018-04-18T14:34:58.003Z,32.70
2018-04-18T14:37:27.236Z,32.82
2018-04-18T14:39:56.214Z,32.21
2018-04-18T14:42:27.431Z,32.19
2018-04-18T14:44:56.354Z,32.36
2018-04-18T14:47:25.159Z,32.71
2018-04-18T14:49:55.211Z,33.50
2018-04-18T14:52:24.526Z,33.77
2018-04-18T14:54:53.332Z,33.34
2018-04-18T14:57:23.490Z,33.52
2018-04-18T14:59:53.599Z,33.64
2018-04-18T15:02:23.409Z,33.52
2018-04-18T15:04:52.643Z,33.00
2018-04-18T15:07:22.117Z,33.16
2018-04-18T15:09:50.539Z,33.43
2018-04-18T15:12:20.373Z,33.13
2018-04-18T15:14:56.233Z,32.89
2018-04-18T15:17:26.885Z,32.72
2018-04-18T15:19:55.220Z,32.94
2018-04-18T15:22:24.687Z,32.97
2018-04-18T15:24:53.533Z,33.21
2018-04-18T15:27:21.928Z,33.18
2018-04-18T15:29:51.810Z,32.47
2018-04-18T15:32:22.580Z,32.27
2018-04-18T15:34:51.489Z,32.89
2018-04-18T15:37:20.853Z,33.00
2018-04-18T15:39:52.236Z,32.56
2018-04-18T15:42:22.612Z,32.95
2018-04-18T15:44:51.990Z,33.20
2018-04-18T15:47:21.981Z,33.14
2018-04-18T15:49:53.058Z,33.02
2018-04-18T15:52:24.052Z,33.32
2018-04-18T15:54:54.123Z,32.75
2018-04-18T15:57:23.593Z,32.73
2018-04-18T15:59:51.968Z,32.90
2018-04-18T16:02:21.027Z,33.08
2018-04-18T16:04:52.800Z,33.39
2018-04-18T16:07:23.771Z,33.19
2018-04-18T16:09:53.274Z,33.39
2018-04-18T16:12:29.081Z,33.54
2018-04-18T16:15:01.365Z,33.34
2018-04-18T16:17:30.008Z,33.45
2018-04-18T16:19:59.398Z,33.39
2018-04-18T16:22:27.934Z,33.40
2018-04-18T16:24:59.206Z,33.30
2018-04-18T16:27:27.583Z,33.55
2018-04-18T16:29:56.857Z,33.71
2018-04-18T16:32:26.063Z,34.07
2018-04-18T16:34:55.794Z,34.29
2018-04-18T16:37:25.276Z,34.54
2018-04-18T16:39:54.618Z,34.57
2018-04-18T16:42:22.938Z,34.55
2018-04-18T16:44:52.465Z,34.68
2018-04-18T16:47:23.247Z,34.57
2018-04-18T16:49:52.618Z,34.22
2018-04-18T16:52:21.998Z,34.25
2018-04-18T16:54:51.509Z,34.34
2018-04-18T16:57:19.888Z,34.63
2018-04-18T16:59:49.812Z,34.43
2018-04-18T17:02:19.966Z,34.69
2018-04-18T17:04:55.331Z,34.55
2018-04-18T17:07:26.297Z,34.90
2018-04-18T17:09:57.054Z,34.67
2018-04-18T17:12:27.357Z,34.66
2018-04-18T17:14:56.516Z,34.75
2018-04-18T17:17:37.620Z,34.39
2018-04-18T17:20:14.110Z,33.82
2018-04-18T17:22:43.977Z,33.28
2018-04-18T17:25:13.568Z,32.90
2018-04-18T17:27:41.993Z,32.42
2018-04-18T17:30:11.707Z,32.50
2018-04-18T17:32:40.798Z,32.25
2018-04-18T17:35:10.930Z,32.26
2018-04-18T17:37:45.001Z,31.72
2018-04-18T17:40:15.513Z,31.58
2018-04-18T17:42:45.097Z,31.09
2018-04-18T17:45:14.855Z,30.86
2018-04-18T17:47:45.184Z,30.68
2018-04-18T17:50:13.698Z,30.35
2018-04-18T17:52:42.812Z,30.33
2018-04-18T17:55:13.050Z,30.56
2018-04-18T17:57:42.601Z,30.56
2018-04-18T18:00:12.319Z,30.76
2018-04-18T18:02:41.517Z,30.85
2018-04-18T18:05:10.219Z,30.36
2018-04-18T18:07:43.800Z,29.77
2018-04-18T18:10:17.309Z,29.57
2018-04-18T18:12:46.863Z,29.04
2018-04-18T18:15:15.260Z,28.42
2018-04-18T18:17:45.928Z,27.65
2018-04-18T18:20:14.290Z,27.28
2018-04-18T18:22:43.558Z,27.02
2018-04-18T18:25:13.810Z,26.88
2018-04-18T18:27:45.986Z,26.73
2018-04-18T18:30:16.981Z,26.56
2018-04-18T18:32:47.112Z,26.50
2018-04-18T18:35:15.458Z,26.55
2018-04-18T18:37:44.884Z,26.45
2018-04-18T18:40:14.211Z,26.43
2018-04-18T18:42:43.542Z,26.23
2018-04-18T18:45:12.128Z,26.17
2018-04-18T18:47:41.142Z,26.18
2018-04-18T18:50:10.178Z,25.96
2018-04-18T18:52:39.630Z,25.63
2018-04-18T18:55:08.009Z,25.47
2018-04-18T18:57:37.190Z,25.33
2018-04-18T19:00:06.282Z,25.11
2018-04-18T19:02:35.738Z,25.06
2018-04-18T19:05:05.343Z,24.73
2018-04-18T19:07:34.258Z,24.73
2018-04-18T19:10:03.997Z,24.44
2018-04-18T19:12:33.485Z,24.53
2018-04-18T19:15:02.748Z,24.31
2018-04-18T19:17:31.170Z,24.21
2018-04-18T19:20:02.030Z,24.14
2018-04-18T19:22:32.649Z,24.06
2018-04-18T19:25:03.246Z,23.93
2018-04-18T19:27:33.085Z,23.92
2018-04-18T19:30:07.175Z,23.67
2018-04-18T19:32:37.349Z,23.47
2018-04-18T19:35:07.981Z,23.28
2018-04-18T19:37:45.448Z,23.04
2018-04-18T19:40:15.319Z,23.25
2018-04-18T19:42:44.258Z,23.05
2018-04-18T19:45:12.701Z,23.06
2018-04-18T19:47:41.917Z,22.94
2018-04-18T19:50:12.863Z,22.62
2018-04-18T19:52:41.192Z,22.48
2018-04-18T19:55:09.608Z,22.19
2018-04-18T19:57:39.444Z,21.91
2018-04-18T20:00:07.840Z,21.89
2018-04-18T20:02:37.934Z,21.79
2018-04-18T20:05:06.350Z,21.67
2018-04-18T20:07:34.705Z,21.54
2018-04-18T20:10:04.505Z,21.51
2018-04-18T20:12:33.948Z,21.41
2018-04-18T20:15:03.386Z,21.42
2018-04-18T20:17:31.762Z,21.38
2018-04-18T20:20:01.688Z,21.20
2018-04-18T20:22:31.087Z,21.27
2018-04-18T20:24:59.447Z,21.26
2018-04-18T20:27:28.625Z,21.25
2018-04-18T20:29:58.304Z,21.11
2018-04-18T20:32:27.826Z,21.05
2018-04-18T20:34:57.057Z,21.13
2018-04-18T20:37:26.357Z,20.89
2018-04-18T20:39:54.792Z,20.85
2018-04-18T20:42:24.269Z,20.89
2018-04-18T20:44:52.870Z,20.83
2018-04-18T20:47:22.259Z,20.85
2018-04-18T20:49:51.270Z,20.99
2018-04-18T20:52:20.925Z,20.71
2018-04-18T20:54:50.438Z,20.69
2018-04-18T20:57:19.006Z,20.64
2018-04-18T20:59:49.650Z,20.57
2018-04-18T21:02:20.946Z,20.64
2018-04-18T21:04:49.292Z,20.55
2018-04-18T21:07:17.695Z,20.61
2018-04-18T21:09:47.721Z,20.66
2018-04-18T21:12:17.025Z,20.64
2018-04-18T21:14:45.505Z,20.58
2018-04-18T21:17:15.343Z,20.53
2018-04-18T21:19:45.525Z,20.33
2018-04-18T21:22:14.816Z,20.26
2018-04-18T21:24:43.952Z,20.38
2018-04-18T21:27:13.262Z,20.36
2018-04-18T21:29:41.706Z,20.33
2018-04-18T21:32:11.718Z,20.28
2018-04-18T21:34:40.124Z,20.28
2018-04-18T21:37:09.465Z,20.08
2018-04-18T21:39:37.932Z,20.12
2018-04-18T21:42:07.999Z,20.00
2018-04-18T21:44:37.649Z,20.05
2018-04-18T21:47:07.607Z,20.12
2018-04-18T21:49:37.206Z,19.93
2018-04-18T21:52:07.264Z,19.97
2018-04-18T21:54:36.651Z,20.00
2018-04-18T21:57:05.253Z,20.09
2018-04-18T21:59:35.390Z,19.96
2018-04-18T22:02:04.241Z,19.88
2018-04-18T22:04:33.075Z,19.69
2018-04-18T22:07:03.512Z,19.47
2018-04-18T22:09:32.425Z,19.49
2018-04-18T22:12:02.473Z,19.51
2018-04-18T22:14:32.013Z,19.49
2018-04-18T22:17:02.604Z,19.58
2018-04-18T22:19:31.610Z,19.57
2018-04-18T22:22:01.811Z,19.68
2018-04-18T22:24:30.803Z,19.62
2018-04-18T22:26:59.218Z,19.53
2018-04-18T22:29:28.523Z,19.44
2018-04-18T22:31:57.597Z,19.26
2018-04-18T22:34:26.878Z,19.30
2018-04-18T22:36:57.009Z,19.20
2018-04-18T22:39:27.149Z,19.19
2018-04-18T22:41:55.531Z,19.22
2018-04-18T22:44:23.974Z,19.12
2018-04-18T22:46:53.422Z,19.07
2018-04-18T22:49:23.441Z,18.99
2018-04-18T22:51:52.084Z,18.99
2018-04-18T22:54:20.473Z,18.76
2018-04-18T22:56:49.618Z,18.92
2018-04-18T22:59:18.009Z,18.88
2018-04-18T23:01:48.186Z,18.88
2018-04-18T23:04:16.543Z,18.82
2018-04-18T23:06:44.916Z,18.65
2018-04-18T23:09:14.752Z,18.60
2018-04-18T23:11:43.193Z,18.61
2018-04-18T23:14:12.301Z,18.40
2018-04-18T23:16:41.697Z,18.44
2018-04-18T23:19:11.258Z,18.46
2018-04-18T23:21:40.495Z,18.40
2018-04-18T23:24:10.435Z,18.30
2018-04-18T23:26:39.549Z,18.15
2018-04-18T23:29:07.915Z,18.07
2018-04-18T23:31:36.837Z,18.10
2018-04-18T23:34:06.107Z,18.11
2018-04-18T23:36:36.398Z,18.05
2018-04-18T23:39:07.139Z,18.14
2018-04-18T23:41:36.177Z,18.10
2018-04-18T23:44:05.075Z,18.06
2018-04-18T23:46:35.266Z,18.00
2018-04-18T23:49:04.280Z,17.98
2018-04-18T23:51:33.157Z,17.93
2018-04-18T23:54:02.064Z,18.00
2018-04-18T23:56:31.185Z,17.93
2018-04-18T23:58:59.617Z,18.05
